Time;durP1;ratioP1;P1;durP2;ratioP2;P2;SDS_P1;SDS_P2;PMS_P1;PMS_P2;Temp;Humidity;BMP_temperature;BMP_pressure;BME280_temperature;BME280_humidity;BME280_pressure;Samples;Min_cycle;Max_cycle;Signal;HPM_P1;HPM_P2
2022/11/11 00:01:21;;;;;;;2.10;0.90;;;;;;;7.83;91.44;96847.59;4374007;32;20259;-59
2022/11/11 00:03:48;;;;;;;0.47;0.47;;;;;;;7.80;91.79;96841.97;4341416;32;20194;-59
2022/11/11 00:06:18;;;;;;;0.70;0.43;;;;;;;7.81;91.48;96843.56;4326715;32;20422;-59
2022/11/11 00:08:48;;;;;;;0.67;0.67;;;;;;;7.66;91.81;96848.59;4369212;32;20289;-59
2022/11/11 00:11:15;;;;;;;0.50;0.50;;;;;;;7.59;91.55;96846.88;4357382;32;20277;-59
2022/11/11 00:13:42;;;;;;;0.30;0.30;;;;;;;7.50;91.77;96840.38;4374888;32;20285;-59
2022/11/11 00:16:19;;;;;;;1.50;0.50;;;;;;;7.19;93.36;96846.09;4369738;32;20474;-59
2022/11/11 00:27:20;;;;;;;0.37;0.37;;;;;;;7.62;91.23;96845.63;4368260;32;20345;-59
2022/11/11 00:29:47;;;;;;;0.20;0.20;;;;;;;7.76;90.70;96843.47;4363956;32;20285;-60
2022/11/11 00:32:29;;;;;;;0.40;0.40;;;;;;;7.91;89.70;96843.72;4372638;32;20199;-59
2022/11/11 00:37:47;;;;;;;0.70;0.70;;;;;;;7.83;90.42;96844.13;4363760;32;20294;-60
2022/11/11 00:40:20;;;;;;;0.63;0.50;;;;;;;7.73;90.58;96842.09;4375882;32;20298;-59
2022/11/11 00:42:47;;;;;;;0.40;0.40;;;;;;;7.88;90.36;96844.22;4376899;32;20315;-59
2022/11/11 00:45:13;;;;;;;0.27;0.27;;;;;;;7.80;90.16;96844.59;4371914;32;20356;-59
2022/11/11 00:53:26;;;;;;;0.43;0.43;;;;;;;7.90;89.66;96842.12;4369981;32;20290;-59
2022/11/11 00:55:53;;;;;;;0.50;0.50;;;;;;;7.80;90.11;96836.69;4371374;32;20299;-59
2022/11/11 00:58:24;;;;;;;0.40;0.40;;;;;;;7.79;90.02;96830.59;4371081;32;20296;-63
2022/11/11 01:00:52;;;;;;;0.63;0.63;;;;;;;7.87;89.47;96826.78;4369586;32;20292;-60
2022/11/11 01:03:18;;;;;;;0.27;0.27;;;;;;;7.63;89.87;96827.94;4365853;32;20322;-60
2022/11/11 01:05:44;;;;;;;0.40;0.40;;;;;;;7.48;90.67;96813.41;4352388;32;20281;-59
2022/11/11 01:08:09;;;;;;;0.40;0.30;;;;;;;7.70;90.17;96818.00;4359165;32;20293;-59
2022/11/11 01:10:43;;;;;;;0.50;0.50;;;;;;;7.69;90.50;96811.16;4353477;32;20210;-60
2022/11/11 01:13:30;;;;;;;0.10;0.10;;;;;;;7.68;89.92;96809.53;4341437;32;20276;-59
2022/11/11 01:16:07;;;;;;;0.20;0.20;;;;;;;7.82;89.15;96811.62;4373786;32;20287;-59
2022/11/11 01:18:35;;;;;;;0.50;0.50;;;;;;;7.72;89.15;96815.94;4376750;32;20299;-59
2022/11/11 01:21:13;;;;;;;0.40;0.40;;;;;;;7.76;89.59;96815.22;4363098;32;20288;-59
2022/11/11 01:23:40;;;;;;;0.20;0.20;;;;;;;7.86;88.74;96822.53;4373327;32;25115;-59
2022/11/11 01:26:18;;;;;;;0.20;0.20;;;;;;;7.93;88.42;96831.09;4367453;32;20284;-59
2022/11/11 01:28:48;;;;;;;0.30;0.30;;;;;;;7.71;89.25;96833.62;4346707;32;20349;-59
2022/11/11 01:31:17;;;;;;;0.20;0.20;;;;;;;7.86;88.73;96836.53;4362336;32;20339;-60
2022/11/11 01:33:44;;;;;;;0.40;0.40;;;;;;;7.74;89.25;96827.06;4349410;32;20280;-59
2022/11/11 01:36:21;;;;;;;0.57;0.57;;;;;;;7.48;89.55;96813.41;4365817;32;20360;-59
2022/11/11 01:38:58;;;;;;;0.30;0.30;;;;;;;7.40;90.12;96823.56;4360526;32;20279;-59
2022/11/11 01:41:31;;;;;;;0.17;0.17;;;;;;;7.44;89.79;96816.75;4380469;32;20317;-59
2022/11/11 01:44:36;;;;;;;0.40;0.40;;;;;;;7.21;90.89;96818.44;4370425;32;20277;-59
2022/11/11 01:47:05;;;;;;;0.10;0.10;;;;;;;7.22;90.68;96827.16;4372634;32;20304;-59
2022/11/11 01:49:51;;;;;;;0.13;0.13;;;;;;;7.32;90.59;96829.19;4378225;32;20327;-59
2022/11/11 01:52:37;;;;;;;0.37;0.37;;;;;;;7.30;90.41;96825.97;4380623;32;20295;-59
2022/11/11 01:55:19;;;;;;;0.37;0.37;;;;;;;7.28;90.15;96823.56;4367138;32;20325;-59
2022/11/11 01:57:51;;;;;;;0.40;0.40;;;;;;;7.41;90.32;96825.97;4387062;32;20265;-59
2022/11/11 02:00:20;;;;;;;3.20;0.30;;;;;;;7.28;90.18;96826.22;4390419;32;20277;-64
2022/11/11 02:02:48;;;;;;;0.20;0.20;;;;;;;7.50;89.59;96832.44;4380324;32;20276;-64
2022/11/11 02:08:34;;;;;;;0.67;0.17;;;;;;;7.50;89.42;96827.16;4339884;32;20322;-63
2022/11/11 02:14:34;;;;;;;0.50;0.50;;;;;;;7.32;90.14;96832.63;4360969;32;20332;-64
2022/11/11 02:16:52;;;;;;;0.30;0.30;;;;;;;7.10;90.83;96815.84;4352697;32;20299;-64
2022/11/11 02:19:23;;;;;;;0.60;0.60;;;;;;;7.17;90.82;96821.78;4374323;32;20291;-64
2022/11/11 02:21:58;;;;;;;0.10;0.10;;;;;;;7.21;90.63;96817.66;4377698;32;20288;-64
2022/11/11 02:24:30;;;;;;;0.10;0.10;;;;;;;7.28;90.46;96822.78;4348190;32;20343;-64
2022/11/11 02:27:02;;;;;;;0.43;0.43;;;;;;;7.42;90.05;96817.00;4385169;32;20295;-64
2022/11/11 02:29:30;;;;;;;0.30;0.30;;;;;;;7.55;88.45;96824.63;4350763;32;20350;-64
2022/11/11 02:31:57;;;;;;;0.30;0.30;;;;;;;7.44;89.20;96822.84;4370191;32;20278;-64
2022/11/11 02:34:34;;;;;;;0.17;0.17;;;;;;;7.55;88.80;96818.53;4372514;32;20276;-64
2022/11/11 02:37:07;;;;;;;2.10;0.73;;;;;;;7.64;88.42;96816.34;4363078;32;20300;-64
2022/11/11 02:39:45;;;;;;;0.17;0.17;;;;;;;7.39;89.21;96812.19;4368531;32;20338;-64
2022/11/11 02:42:27;;;;;;;0.37;0.37;;;;;;;7.35;89.08;96821.59;4356116;32;20391;-64
2022/11/11 02:44:57;;;;;;;0.50;0.50;;;;;;;7.34;89.69;96827.91;4359859;32;20288;-64
2022/11/11 02:47:26;;;;;;;0.43;0.43;;;;;;;7.27;89.41;96832.56;4375941;32;20310;-64
2022/11/11 02:49:52;;;;;;;0.20;0.20;;;;;;;7.35;89.46;96841.91;4381543;32;20284;-64
2022/11/11 02:52:19;;;;;;;0.60;0.23;;;;;;;7.40;89.08;96832.28;4390967;32;20280;-64
2022/11/11 02:54:46;;;;;;;0.50;0.50;;;;;;;7.54;88.58;96843.34;4375739;32;20300;-64
2022/11/11 02:57:14;;;;;;;0.93;0.57;;;;;;;7.48;88.80;96839.81;4347246;32;20311;-64
2022/11/11 02:59:41;;;;;;;0.30;0.30;;;;;;;7.56;88.49;96836.78;4363691;32;20389;-64
2022/11/11 03:02:09;;;;;;;0.27;0.27;;;;;;;7.45;88.87;96835.00;4389260;32;20376;-64
2022/11/11 03:04:37;;;;;;;0.50;0.50;;;;;;;7.47;89.08;96848.78;4358494;32;20277;-64
2022/11/11 03:07:05;;;;;;;0.50;0.50;;;;;;;7.49;88.99;96851.97;4370079;32;20277;-64
2022/11/11 03:09:37;;;;;;;0.53;0.43;;;;;;;7.45;89.41;96850.84;4355464;32;20308;-63
2022/11/11 03:12:05;;;;;;;0.00;0.00;;;;;;;7.61;88.81;96854.56;4377364;32;20321;-64
2022/11/11 03:14:32;;;;;;;0.17;0.17;;;;;;;7.45;89.61;96861.41;4380759;32;20319;-64
2022/11/11 03:19:43;;;;;;;0.20;0.20;;;;;;;7.47;89.53;96875.19;4352964;32;20307;-64
2022/11/11 03:22:09;;;;;;;0.00;0.00;;;;;;;7.19;89.87;96883.84;4392384;32;23417;-64
2022/11/11 03:27:20;;;;;;;0.40;0.40;;;;;;;7.21;89.89;96907.37;4387405;32;20203;-64
2022/11/11 03:29:47;;;;;;;0.20;0.20;;;;;;;7.18;90.17;96899.91;4369174;32;20344;-65
2022/11/11 03:32:12;;;;;;;0.20;0.20;;;;;;;7.04;90.70;96904.66;4354264;32;20343;-64
2022/11/11 03:34:38;;;;;;;0.30;0.30;;;;;;;7.09;90.36;96899.47;4358021;32;20284;-65
2022/11/11 03:39:58;;;;;;;0.10;0.10;;;;;;;7.38;89.32;96907.44;4360469;32;20195;-64
2022/11/11 03:42:24;;;;;;;0.33;0.33;;;;;;;7.44;87.92;96911.81;4360951;32;20285;-64
2022/11/11 03:44:49;;;;;;;0.20;0.20;;;;;;;7.38;88.34;96908.25;4356737;32;20318;-64
2022/11/11 03:47:16;;;;;;;0.23;0.23;;;;;;;7.39;88.14;96903.78;4383160;32;20285;-65
2022/11/11 03:49:45;;;;;;;0.40;0.33;;;;;;;7.20;88.46;96903.12;4370482;32;20277;-64
2022/11/11 03:52:12;;;;;;;0.23;0.23;;;;;;;7.32;88.45;96903.09;4379159;32;20323;-64
2022/11/11 03:54:38;;;;;;;0.00;0.00;;;;;;;7.10;89.38;96895.00;4363038;32;20277;-64
2022/11/11 03:59:51;;;;;;;0.30;0.30;;;;;;;7.16;89.92;96894.06;4376885;32;20207;-64
2022/11/11 04:10:46;;;;;;;0.20;0.20;;;;;;;7.14;89.85;96890.84;4320968;32;20330;-64
2022/11/11 04:16:09;;;;;;;0.50;0.50;;;;;;;7.26;89.59;96888.22;4367510;32;20340;-64
2022/11/11 04:21:44;;;;;;;0.23;0.23;;;;;;;6.96;91.10;96886.53;4359347;32;20365;-64
2022/11/11 04:27:18;;;;;;;0.47;0.47;;;;;;;6.99;90.30;96872.88;4370187;32;20357;-64
2022/11/11 04:29:46;;;;;;;0.20;0.20;;;;;;;6.98;90.08;96865.19;4366424;32;20334;-64
2022/11/11 04:35:09;;;;;;;0.20;0.20;;;;;;;6.73;90.59;96874.16;4358393;32;20299;-64
2022/11/11 04:37:44;;;;;;;0.10;0.10;;;;;;;6.46;90.89;96873.00;4363412;32;20280;-64
2022/11/11 04:42:59;;;;;;;0.20;0.20;;;;;;;5.81;93.06;96871.16;4370435;32;20344;-64
2022/11/11 04:45:29;;;;;;;0.33;0.33;;;;;;;5.69;93.83;96869.50;4362808;32;20359;-64
2022/11/11 04:48:12;;;;;;;0.10;0.10;;;;;;;5.86;93.31;96873.09;4367086;32;20331;-64
2022/11/11 04:50:45;;;;;;;0.27;0.27;;;;;;;5.93;93.17;96868.56;4360151;32;20288;-64
2022/11/11 04:53:14;;;;;;;0.53;0.30;;;;;;;6.19;91.81;96865.56;4370115;32;20280;-64
2022/11/11 04:58:33;;;;;;;0.30;0.30;;;;;;;6.49;89.71;96877.81;4342293;32;20335;-64
2022/11/11 05:01:00;;;;;;;0.43;0.43;;;;;;;6.53;89.95;96878.97;4351535;32;20294;-64
2022/11/11 05:03:30;;;;;;;0.20;0.20;;;;;;;6.48;90.21;96874.38;4366198;32;20295;-64
2022/11/11 05:08:58;;;;;;;0.13;0.13;;;;;;;6.61;89.43;96881.28;4367398;32;20315;-64
2022/11/11 05:11:35;;;;;;;0.30;0.30;;;;;;;6.54;89.70;96885.84;4372063;32;20327;-64
2022/11/11 05:22:38;;;;;;;0.10;0.10;;;;;;;6.51;90.20;96884.47;4371924;32;20327;-64
2022/11/11 05:27:51;;;;;;;0.13;0.13;;;;;;;6.40;89.91;96885.28;4343782;32;20291;-64
2022/11/11 05:30:21;;;;;;;0.00;0.00;;;;;;;6.43;89.67;96886.66;4371785;32;20296;-64
2022/11/11 05:33:14;;;;;;;0.30;0.30;;;;;;;6.33;89.20;96894.31;4357962;32;20288;-64
2022/11/11 05:35:41;;;;;;;0.40;0.40;;;;;;;6.27;88.74;96898.66;4348014;32;23313;-64
2022/11/11 05:38:19;;;;;;;0.10;0.10;;;;;;;6.07;89.52;96890.25;4372710;32;20321;-64
2022/11/11 05:40:46;;;;;;;0.13;0.13;;;;;;;6.02;89.42;96904.13;4375019;32;20277;-65
2022/11/11 05:43:13;;;;;;;0.43;0.43;;;;;;;6.07;88.92;96909.50;4347918;32;20289;-64
2022/11/11 05:45:41;;;;;;;0.53;0.53;;;;;;;6.03;88.92;96913.59;4360077;32;20308;-64
2022/11/11 05:48:09;;;;;;;0.10;0.10;;;;;;;6.01;89.09;96918.31;4371305;32;20325;-64
2022/11/11 05:50:40;;;;;;;0.10;0.10;;;;;;;6.25;88.59;96913.87;4359839;32;20339;-64
2022/11/11 05:53:10;;;;;;;10.87;0.70;;;;;;;6.09;88.29;96914.53;4351326;32;20273;-64
2022/11/11 05:55:38;;;;;;;0.13;0.13;;;;;;;6.31;87.57;96928.00;4378113;32;20316;-65
2022/11/11 05:58:05;;;;;;;0.20;0.20;;;;;;;6.26;87.94;96936.56;4363592;32;20281;-64
2022/11/11 06:00:31;;;;;;;0.10;0.10;;;;;;;6.26;88.04;96939.19;4360728;32;20311;-64
2022/11/11 06:03:07;;;;;;;0.60;0.43;;;;;;;6.24;87.84;96935.97;4372299;32;20277;-64
2022/11/11 06:05:35;;;;;;;0.50;0.50;;;;;;;6.31;87.57;96943.81;4376124;32;20300;-63
2022/11/11 06:08:03;;;;;;;0.20;0.20;;;;;;;6.40;87.72;96943.25;4339491;32;20313;-63
2022/11/11 06:10:30;;;;;;;0.80;0.80;;;;;;;6.45;88.14;96940.72;4360201;32;20274;-63
2022/11/11 06:13:12;;;;;;;0.40;0.20;;;;;;;6.44;88.04;96938.34;4362998;32;20280;-63
2022/11/11 06:15:39;;;;;;;0.27;0.27;;;;;;;6.70;86.86;96943.19;4372811;32;20366;-63
2022/11/11 06:18:07;;;;;;;0.30;0.30;;;;;;;6.41;87.59;96949.34;4386512;32;20329;-63
2022/11/11 06:20:37;;;;;;;0.20;0.20;;;;;;;6.47;87.51;96959.75;4371983;32;20300;-63
2022/11/11 06:23:04;;;;;;;0.40;0.40;;;;;;;6.52;87.45;96959.09;4375470;32;20289;-62
2022/11/11 06:28:18;;;;;;;0.10;0.10;;;;;;;6.66;87.36;96963.12;4358098;32;20355;-63
2022/11/11 06:30:46;;;;;;;0.20;0.20;;;;;;;6.57;87.52;96953.94;4361540;32;20289;-63
2022/11/11 06:33:24;;;;;;;0.40;0.40;;;;;;;6.59;87.85;96956.34;4349740;32;20281;-63
2022/11/11 06:35:58;;;;;;;0.33;0.33;;;;;;;6.68;87.41;96966.31;4285231;32;20286;-63
2022/11/11 06:38:27;;;;;;;0.20;0.20;;;;;;;6.81;87.04;96965.31;4238194;32;20294;-63
2022/11/11 06:40:52;;;;;;;0.37;0.37;;;;;;;6.58;87.97;96975.84;4360082;32;20278;-63
2022/11/11 06:43:19;;;;;;;3.60;1.23;;;;;;;6.55;88.23;96972.63;4367167;32;20277;-64
2022/11/11 06:45:50;;;;;;;0.93;0.87;;;;;;;6.63;88.35;96976.78;4383137;32;20180;-63
2022/11/11 06:48:17;;;;;;;0.50;0.50;;;;;;;6.69;87.91;96986.41;4369839;32;20285;-62
2022/11/11 06:50:50;;;;;;;0.67;0.67;;;;;;;6.67;87.63;96988.44;4348648;32;20360;-63
2022/11/11 06:53:18;;;;;;;0.87;0.87;;;;;;;6.72;87.80;96991.22;4373285;32;20284;-62
2022/11/11 06:55:44;;;;;;;1.13;1.13;;;;;;;6.80;87.70;96995.38;4381195;32;20372;-63
2022/11/11 06:58:21;;;;;;;0.63;0.63;;;;;;;6.84;87.54;97001.81;4364914;32;20371;-64
2022/11/11 07:00:49;;;;;;;0.43;0.43;;;;;;;6.92;87.68;97008.56;4375755;32;20279;-63
2022/11/11 07:03:19;;;;;;;0.50;0.50;;;;;;;6.83;88.13;97006.28;4367603;32;20328;-63
2022/11/11 07:05:45;;;;;;;0.37;0.37;;;;;;;6.84;88.40;97012.34;4355181;32;20285;-63
2022/11/11 07:08:18;;;;;;;0.53;0.53;;;;;;;7.06;87.85;97010.78;4376520;32;20359;-63
2022/11/11 07:10:47;;;;;;;2.67;1.07;;;;;;;7.14;87.71;97010.41;4354276;32;20345;-64
2022/11/11 07:13:17;;;;;;;16.57;2.17;;;;;;;7.10;87.57;97016.38;4360186;32;21747;-55
2022/11/11 07:15:43;;;;;;;4.47;0.80;;;;;;;9.81;100.00;97021.78;4371828;32;20351;-51
2022/11/11 07:18:10;;;;;;;0.30;0.30;;;;;;;10.74;100.00;97017.25;4366730;32;20312;-55
2022/11/11 07:20:37;;;;;;;0.53;0.53;;;;;;;11.21;97.86;97020.84;4355250;32;20215;-54
2022/11/11 07:23:04;;;;;;;4.10;0.93;;;;;;;11.95;86.79;97019.97;4354655;32;20197;-52
2022/11/11 07:25:29;;;;;;;3.37;1.33;;;;;;;12.36;79.37;97032.34;4357081;32;20231;-53
2022/11/11 07:27:56;;;;;;;0.80;0.80;;;;;;;12.80;76.48;97031.91;4360916;32;20192;-54
2022/11/11 07:30:22;;;;;;;0.60;0.60;;;;;;;13.50;73.97;97040.19;4344225;32;20241;-51
2022/11/11 07:32:51;;;;;;;0.60;0.60;;;;;;;13.51;69.20;97037.22;4371174;32;20184;-54
2022/11/11 07:35:24;;;;;;;0.70;0.70;;;;;;;13.60;70.11;97035.63;4357969;32;20249;-55
2022/11/11 07:37:50;;;;;;;0.53;0.50;;;;;;;13.68;69.19;97040.44;4356364;32;20236;-55
2022/11/11 07:40:17;;;;;;;0.33;0.33;;;;;;;13.79;68.90;97043.06;4377367;32;20184;-52
2022/11/11 07:42:44;;;;;;;1.10;1.00;;;;;;;13.89;67.82;97041.19;4372239;32;20176;-55
2022/11/11 07:45:13;;;;;;;0.70;0.70;;;;;;;13.22;68.66;97044.22;4348598;32;20208;-54
2022/11/11 07:47:51;;;;;;;1.03;0.67;;;;;;;13.17;68.34;97047.66;4352077;32;20216;-55
2022/11/11 07:50:18;;;;;;;0.30;0.30;;;;;;;13.32;68.00;97039.66;4375002;32;20180;-53
2022/11/11 07:52:51;;;;;;;1.63;1.00;;;;;;;13.45;68.92;97045.53;4362399;32;20185;-55
2022/11/11 07:55:17;;;;;;;12.93;0.90;;;;;;;13.46;67.11;97047.94;4359435;32;20197;-52
2022/11/11 07:57:53;;;;;;;1.33;1.27;;;;;;;13.35;66.43;97051.66;4355116;32;20189;-66
2022/11/11 08:00:19;;;;;;;8.13;2.10;;;;;;;12.27;67.38;97047.22;4376484;32;20245;-64
2022/11/11 08:02:49;;;;;;;4.07;1.47;;;;;;;11.28;70.28;97052.47;4373471;32;20176;-65
2022/11/11 08:05:19;;;;;;;0.90;0.90;;;;;;;10.31;74.36;97051.59;4358357;32;20255;-66
2022/11/11 08:07:46;;;;;;;6.83;1.53;;;;;;;9.67;78.00;97053.16;4375725;32;20181;-66
2022/11/11 08:10:13;;;;;;;0.77;0.77;;;;;;;9.11;81.19;97052.31;4376289;32;20196;-67
2022/11/11 08:15:26;;;;;;;1.83;1.27;;;;;;;8.96;82.27;97060.00;4346173;32;20196;-65
2022/11/11 08:17:52;;;;;;;0.93;0.90;;;;;;;8.81;83.05;97055.25;4373399;32;20330;-66
2022/11/11 08:20:38;;;;;;;0.97;0.97;;;;;;;8.74;83.10;97059.09;4319761;32;20285;-66
2022/11/11 08:23:20;;;;;;;0.30;0.30;;;;;;;8.33;85.25;97049.63;4218588;32;20204;-62
2022/11/11 08:25:52;;;;;;;0.97;0.73;;;;;;;8.20;85.98;97056.75;4181210;32;20253;-64
2022/11/11 08:28:29;;;;;;;0.93;0.60;;;;;;;8.32;85.66;97045.34;4236691;32;20201;-63
2022/11/11 08:31:03;;;;;;;0.53;0.53;;;;;;;8.26;85.74;97039.97;4209285;32;20330;-67
2022/11/11 08:33:40;;;;;;;0.50;0.50;;;;;;;8.22;85.96;97040.66;4266175;32;20284;-64
2022/11/11 08:36:14;;;;;;;0.50;0.50;;;;;;;8.27;86.26;97040.78;4222012;32;20337;-66
2022/11/11 08:38:44;;;;;;;1.03;0.60;;;;;;;8.37;86.15;97035.69;4289745;32;20275;-63
2022/11/11 08:41:11;;;;;;;0.57;0.57;;;;;;;8.39;86.07;97023.03;4356891;32;21567;-62
2022/11/11 08:43:36;;;;;;;0.80;0.80;;;;;;;8.39;86.22;97030.97;4357341;32;20284;-64
2022/11/11 08:46:04;;;;;;;0.30;0.30;;;;;;;8.43;86.30;97021.53;4380278;32;20295;-65
2022/11/11 08:48:38;;;;;;;1.13;1.13;;;;;;;8.55;85.99;97021.47;4361872;32;20270;-66
2022/11/11 08:51:24;;;;;;;0.30;0.30;;;;;;;8.54;85.65;97018.00;4350012;32;20274;-65
2022/11/11 08:53:49;;;;;;;0.20;0.20;;;;;;;8.72;85.36;97017.03;4329242;32;20348;-64
2022/11/11 08:56:26;;;;;;;0.37;0.37;;;;;;;8.75;85.27;97019.16;4366190;32;20354;-68
2022/11/11 08:58:59;;;;;;;1.20;0.73;;;;;;;8.74;85.05;97016.75;4312448;32;20303;-67
2022/11/11 09:01:26;;;;;;;0.33;0.33;;;;;;;8.90;84.53;97016.78;4347210;32;20336;-65
2022/11/11 09:03:53;;;;;;;0.60;0.60;;;;;;;8.84;85.25;97011.66;4366348;32;20172;-64
2022/11/11 09:06:20;;;;;;;7.23;1.27;;;;;;;9.06;84.21;97009.88;4378641;32;20204;-65
2022/11/11 09:08:49;;;;;;;0.57;0.53;;;;;;;9.14;83.83;97006.84;4355173;32;20185;-63
2022/11/11 09:11:35;;;;;;;0.63;0.63;;;;;;;9.33;82.97;97001.28;4366859;32;20180;-64
2022/11/11 09:14:02;;;;;;;0.50;0.50;;;;;;;9.64;82.11;97000.63;4360915;32;20243;-64
2022/11/11 09:16:39;;;;;;;0.27;0.27;;;;;;;9.72;81.41;97007.38;4327901;32;20193;-65
2022/11/11 09:19:06;;;;;;;1.07;0.60;;;;;;;9.81;80.60;97003.22;4362188;32;20192;-64
2022/11/11 09:21:34;;;;;;;0.23;0.23;;;;;;;9.94;80.41;96997.56;4326934;32;20407;-61
2022/11/11 09:24:00;;;;;;;0.30;0.30;;;;;;;10.16;79.58;97000.22;4289168;32;20236;-64
2022/11/11 09:26:30;;;;;;;0.63;0.63;;;;;;;10.18;80.36;97001.56;4321958;32;20244;-63
2022/11/11 09:28:55;;;;;;;0.37;0.23;;;;;;;9.99;79.56;97011.66;4348390;32;20222;-63
2022/11/11 09:31:23;;;;;;;0.73;0.43;;;;;;;9.88;80.62;97007.31;4355710;32;20227;-63
2022/11/11 09:33:54;;;;;;;0.60;0.60;;;;;;;10.10;80.13;97015.25;4332680;32;20203;-64
2022/11/11 09:36:20;;;;;;;0.63;0.63;;;;;;;10.12;79.67;97012.34;4323988;32;20256;-64
2022/11/11 09:38:47;;;;;;;0.30;0.30;;;;;;;10.32;78.79;97018.72;4354488;32;20232;-64
2022/11/11 09:41:48;;;;;;;0.43;0.43;;;;;;;10.42;78.16;97011.91;4354997;32;20254;-62
2022/11/11 09:45:01;;;;;;;0.10;0.10;;;;;;;10.68;77.36;97016.41;4355251;32;20278;-66
2022/11/11 09:48:05;;;;;;;0.27;0.27;;;;;;;10.81;78.22;97010.69;4352847;32;20189;-63
2022/11/11 09:50:38;;;;;;;0.67;0.37;;;;;;;10.96;77.81;97007.38;4352872;32;20235;-63
2022/11/11 09:53:25;;;;;;;0.27;0.27;;;;;;;11.16;78.76;97009.38;4311286;32;20253;-64
2022/11/11 09:56:01;;;;;;;0.30;0.30;;;;;;;11.55;76.18;97016.00;4356892;32;20188;-67
2022/11/11 09:59:00;;;;;;;0.97;0.97;;;;;;;11.67;75.67;97013.13;4369778;32;20192;-51
2022/11/11 10:01:49;;;;;;;0.20;0.20;;;;;;;13.72;91.05;97006.78;4341798;32;20301;-51
2022/11/11 10:04:43;;;;;;;0.53;0.43;;;;;;;14.72;80.01;97013.84;4361051;32;20194;-55
2022/11/11 10:07:17;;;;;;;0.30;0.30;;;;;;;15.06;71.83;97008.50;4357145;32;20193;-55
2022/11/11 10:09:59;;;;;;;0.10;0.10;;;;;;;16.16;68.98;97007.69;4358611;32;20212;-56
2022/11/11 10:12:38;;;;;;;0.43;0.43;;;;;;;16.65;67.95;97012.66;4337450;32;20182;-55
2022/11/11 10:15:12;;;;;;;0.10;0.10;;;;;;;16.05;62.20;97016.91;4359223;32;20184;-64
2022/11/11 10:17:49;;;;;;;0.30;0.30;;;;;;;14.65;62.90;97018.69;4323691;32;20201;-65
2022/11/11 10:20:37;;;;;;;0.10;0.10;;;;;;;13.86;65.80;97022.25;4359018;32;20265;-63
2022/11/11 10:23:16;;;;;;;0.20;0.20;;;;;;;13.27;67.22;97022.88;4332242;32;20277;-68
2022/11/11 10:25:52;;;;;;;0.20;0.20;;;;;;;12.89;69.65;97014.31;4353177;32;20253;-62
2022/11/11 10:28:21;;;;;;;0.30;0.30;;;;;;;12.59;71.33;97012.44;4343023;32;20230;-63
2022/11/11 10:30:50;;;;;;;0.70;0.70;;;;;;;12.35;72.59;97006.78;4345702;32;20184;-62
2022/11/11 10:33:29;;;;;;;0.33;0.33;;;;;;;12.03;75.66;96996.34;4352152;32;20238;-62
2022/11/11 10:36:13;;;;;;;0.30;0.30;;;;;;;12.01;75.75;97008.28;4371591;32;20252;-64
2022/11/11 10:39:09;;;;;;;5.00;0.83;;;;;;;12.12;74.26;96999.28;4358404;32;20184;-62
2022/11/11 10:41:46;;;;;;;0.60;0.60;;;;;;;12.01;73.63;96997.66;4371786;32;20192;-64
2022/11/11 10:44:25;;;;;;;1.83;0.70;;;;;;;11.80;74.63;97003.94;4358708;32;20322;-62
2022/11/11 10:47:31;;;;;;;0.50;0.50;;;;;;;11.90;73.55;97014.59;4331575;32;20222;-64
2022/11/11 10:50:03;;;;;;;0.47;0.47;;;;;;;11.94;74.32;97010.38;4373075;32;20191;-64
2022/11/11 10:52:39;;;;;;;2.57;0.60;;;;;;;11.96;73.90;97008.25;4373039;32;20189;-63
2022/11/11 10:55:44;;;;;;;0.63;0.63;;;;;;;12.01;74.34;96997.66;4365976;32;20188;-60
2022/11/11 10:58:33;;;;;;;3.13;0.77;;;;;;;12.02;73.91;96996.59;4359927;32;20314;-62
2022/11/11 11:01:04;;;;;;;0.60;0.60;;;;;;;12.09;73.89;96997.13;4359650;32;20234;-61
2022/11/11 11:03:42;;;;;;;0.20;0.20;;;;;;;12.10;72.47;96998.72;4378110;32;20206;-61
2022/11/11 11:06:46;;;;;;;0.10;0.10;;;;;;;12.19;71.87;97009.69;4369915;32;20197;-63
2022/11/11 11:09:40;;;;;;;0.90;0.43;;;;;;;12.24;71.67;97007.03;4374654;32;20212;-62
2022/11/11 11:12:23;;;;;;;0.60;0.60;;;;;;;12.21;71.29;97008.34;4368161;32;20199;-62
2022/11/11 11:14:55;;;;;;;0.70;0.70;;;;;;;12.30;71.20;97017.41;4358483;32;20193;-61
2022/11/11 11:17:27;;;;;;;0.17;0.17;;;;;;;12.45;70.67;97018.53;4354018;32;20232;-63
2022/11/11 11:20:15;;;;;;;0.73;0.73;;;;;;;12.53;69.34;97012.69;4369726;32;20234;-62
2022/11/11 11:23:01;;;;;;;0.77;0.43;;;;;;;12.39;69.04;97010.53;4360227;32;20284;-62
2022/11/11 11:25:32;;;;;;;0.20;0.20;;;;;;;12.27;69.33;97012.63;4357352;32;20196;-62
2022/11/11 11:28:12;;;;;;;0.20;0.20;;;;;;;12.31;69.25;97011.03;4317369;32;20198;-61
2022/11/11 11:30:39;;;;;;;3.40;1.03;;;;;;;12.33;68.80;97000.94;4326420;32;20192;-62
2022/11/11 11:33:08;;;;;;;0.70;0.70;;;;;;;12.34;68.99;97007.06;4367606;32;20192;-62
2022/11/11 11:35:42;;;;;;;0.80;0.80;;;;;;;12.32;68.62;97009.16;4360745;32;20232;-64
2022/11/11 11:38:11;;;;;;;0.40;0.40;;;;;;;12.41;68.67;97004.94;4360656;32;20255;-63
2022/11/11 11:41:12;;;;;;;0.80;0.80;;;;;;;12.50;68.59;96997.22;4357014;32;20193;-64
2022/11/11 11:43:48;;;;;;;1.47;0.83;;;;;;;12.75;68.61;96994.59;4330546;32;20211;-63
2022/11/11 11:46:39;;;;;;;0.33;0.33;;;;;;;12.75;67.64;96999.94;4357996;32;20188;-65
2022/11/11 11:49:42;;;;;;;0.60;0.60;;;;;;;12.68;67.87;96992.19;4355152;32;20219;-63
2022/11/11 11:52:53;;;;;;;0.70;0.70;;;;;;;12.60;68.68;96986.62;4370562;32;20193;-65
2022/11/11 11:55:26;;;;;;;0.53;0.53;;;;;;;12.56;68.49;96983.66;4317443;32;20196;-64
2022/11/11 11:58:18;;;;;;;2.53;1.50;;;;;;;12.69;67.99;96980.47;4357047;32;20205;-63
2022/11/11 12:01:15;;;;;;;1.13;1.03;;;;;;;12.78;67.94;96986.09;4377563;32;20185;-64
2022/11/11 12:04:19;;;;;;;0.90;0.90;;;;;;;12.68;69.60;96970.88;4372620;32;20283;-63
2022/11/11 12:07:28;;;;;;;0.87;0.87;;;;;;;12.73;70.31;96962.13;4323083;32;20196;-65
2022/11/11 12:10:32;;;;;;;1.00;1.00;;;;;;;12.81;70.44;96964.25;4324679;32;20262;-65
2022/11/11 12:13:41;;;;;;;1.13;0.93;;;;;;;12.78;70.94;96964.78;4263415;32;20232;-68
2022/11/11 12:16:30;;;;;;;2.37;1.20;;;;;;;12.82;71.43;96967.72;4242329;33;20191;-63
2022/11/11 12:19:31;;;;;;;1.17;1.17;;;;;;;12.89;71.67;96974.34;4214389;33;20254;-66
2022/11/11 12:22:34;;;;;;;0.83;0.83;;;;;;;12.85;72.89;96985.84;4277900;33;20376;-64
2022/11/11 12:25:40;;;;;;;0.67;0.67;;;;;;;12.77;74.15;96987.16;4282591;33;20206;-66
2022/11/11 12:28:42;;;;;;;0.63;0.63;;;;;;;12.85;74.59;96975.97;4291710;33;20190;-65
2022/11/11 12:31:34;;;;;;;1.17;1.17;;;;;;;12.80;75.46;96973.31;4298586;33;20205;-63
2022/11/11 12:34:10;;;;;;;0.80;0.80;;;;;;;12.72;76.03;96966.63;4305552;33;20216;-63
2022/11/11 12:37:12;;;;;;;1.10;1.10;;;;;;;12.73;75.61;96970.09;4314138;33;20341;-65
2022/11/11 12:40:16;;;;;;;1.20;1.20;;;;;;;12.79;75.73;96971.72;4239458;33;20212;-63
2022/11/11 12:43:19;;;;;;;0.87;0.87;;;;;;;12.74;76.46;96972.50;4280086;33;20257;-64
2022/11/11 12:46:08;;;;;;;1.10;1.10;;;;;;;12.72;76.88;96963.19;4278594;33;20292;-63
2022/11/11 12:49:07;;;;;;;0.60;0.60;;;;;;;12.54;77.33;96963.69;4223593;33;20288;-65
2022/11/11 12:52:11;;;;;;;1.10;1.10;;;;;;;12.63;77.67;96954.94;4213203;32;20238;-63
2022/11/11 12:55:04;;;;;;;0.60;0.57;;;;;;;12.65;78.12;96957.34;4208245;32;20224;-64
2022/11/11 12:58:02;;;;;;;0.83;0.83;;;;;;;12.66;77.91;96965.06;4362111;32;20188;-63
2022/11/11 13:00:31;;;;;;;0.77;0.77;;;;;;;12.67;77.93;96971.19;4279624;32;20198;-63
2022/11/11 13:03:32;;;;;;;0.70;0.70;;;;;;;12.63;78.13;96962.94;4309299;32;20249;-63
2022/11/11 13:06:25;;;;;;;1.33;1.23;;;;;;;12.73;78.09;96962.13;4331800;32;20211;-63
2022/11/11 13:09:34;;;;;;;3.70;1.10;;;;;;;12.62;79.03;96973.84;4365017;32;20201;-66
2022/11/11 13:12:39;;;;;;;1.60;1.50;;;;;;;12.70;78.24;96967.97;4367437;32;20200;-66
2022/11/11 13:15:20;;;;;;;1.20;1.10;;;;;;;12.76;78.04;96971.44;4332285;32;20185;-66
2022/11/11 13:17:48;;;;;;;2.87;1.17;;;;;;;12.85;77.75;96970.66;4349859;32;20176;-66
2022/11/11 13:20:26;;;;;;;2.60;1.03;;;;;;;12.78;77.69;96967.44;4367109;32;20188;-66
2022/11/11 13:22:53;;;;;;;0.60;0.60;;;;;;;12.73;77.61;96967.44;4366967;32;20185;-66
2022/11/11 13:25:35;;;;;;;0.97;0.97;;;;;;;12.62;78.50;96973.84;4364265;32;20185;-65
2022/11/11 13:28:27;;;;;;;1.23;1.20;;;;;;;12.66;78.48;96972.25;4344356;32;20188;-65
2022/11/11 13:31:34;;;;;;;0.83;0.83;;;;;;;12.70;78.29;96971.44;4368126;32;20200;-67
2022/11/11 13:34:10;;;;;;;1.37;1.27;;;;;;;12.86;78.06;96971.47;4285659;32;20186;-64
2022/11/11 13:36:49;;;;;;;3.87;1.33;;;;;;;12.71;78.75;96969.56;4343706;32;20189;-66
2022/11/11 13:39:32;;;;;;;1.13;1.13;;;;;;;12.64;78.96;96966.38;4328947;32;20187;-67